createdAt,value
2023-05-20T00:03:45.211Z,12.28
2023-05-20T00:08:36.869Z,12.17
2023-05-20T00:13:28.604Z,12.14
2023-05-20T00:18:20.244Z,12.16
2023-05-20T00:23:11.943Z,12.19
2023-05-20T00:28:03.709Z,12.25
2023-05-20T00:32:55.531Z,12.27
2023-05-20T00:37:47.193Z,12.31
2023-05-20T00:42:38.864Z,12.30
2023-05-20T00:47:33.801Z,12.26
2023-05-20T00:52:25.830Z,12.17
2023-05-20T00:57:19.217Z,12.08
2023-05-20T01:02:11.483Z,11.97
2023-05-20T01:07:06.100Z,11.90
2023-05-20T01:12:07.102Z,11.83
2023-05-20T01:17:02.244Z,11.76
2023-05-20T01:21:55.553Z,11.69
2023-05-20T01:26:48.497Z,11.64
2023-05-20T01:31:40.479Z,11.60
2023-05-20T01:36:33.645Z,11.55
2023-05-20T01:41:27.434Z,11.49
2023-05-20T01:46:19.161Z,11.44
2023-05-20T01:51:11.172Z,11.38
2023-05-20T01:56:03.097Z,11.32
2023-05-20T02:00:54.828Z,11.29
2023-05-20T02:05:46.525Z,11.23
2023-05-20T02:10:38.208Z,11.17
2023-05-20T02:15:29.881Z,11.09
2023-05-20T02:20:21.600Z,10.98
2023-05-20T02:25:13.293Z,10.84
2023-05-20T02:30:05.645Z,10.70
2023-05-20T02:34:57.298Z,10.54
2023-05-20T02:39:48.908Z,10.39
2023-05-20T02:44:41.356Z,10.26
2023-05-20T02:49:33.019Z,10.14
2023-05-20T02:54:24.736Z,10.02
2023-05-20T02:59:16.455Z,9.97
2023-05-20T03:04:08.748Z,9.92
2023-05-20T03:09:00.424Z,9.86
2023-05-20T03:13:52.148Z,9.81
2023-05-20T03:18:43.936Z,9.72
2023-05-20T03:23:35.963Z,9.67
2023-05-20T03:28:27.639Z,9.63
2023-05-20T03:33:19.337Z,9.57
2023-05-20T03:38:11.024Z,9.54
2023-05-20T03:43:02.630Z,9.53
2023-05-20T03:47:54.379Z,9.49
2023-05-20T03:52:46.057Z,9.47
2023-05-20T03:57:37.945Z,9.46
2023-05-20T04:02:30.165Z,9.45
2023-05-20T04:07:22.001Z,9.45
2023-05-20T04:12:14.047Z,9.46
2023-05-20T04:17:06.762Z,9.44
2023-05-20T04:21:58.452Z,9.44
2023-05-20T04:26:50.197Z,9.41
2023-05-20T04:31:41.809Z,9.42
2023-05-20T04:36:34.790Z,9.41
2023-05-20T04:41:27.431Z,9.52
2023-05-20T04:46:20.588Z,9.75
2023-05-20T04:51:12.309Z,9.98
2023-05-20T04:56:04.145Z,10.23
2023-05-20T05:00:56.598Z,10.47
2023-05-20T05:05:48.611Z,10.70
2023-05-20T05:10:40.418Z,10.98
2023-05-20T05:15:32.343Z,11.29
2023-05-20T05:20:24.209Z,11.61
2023-05-20T05:25:16.511Z,11.92
2023-05-20T05:30:08.609Z,12.27
2023-05-20T05:35:00.290Z,12.53
2023-05-20T05:39:52.459Z,12.90
2023-05-20T05:44:44.705Z,13.25
2023-05-20T05:49:36.343Z,13.58
2023-05-20T05:54:27.998Z,13.96
2023-05-20T05:59:20.194Z,14.32
2023-05-20T06:04:11.907Z,14.61
2023-05-20T06:09:03.769Z,15.01
2023-05-20T06:13:55.710Z,15.35
2023-05-20T06:18:50.129Z,15.73
2023-05-20T06:23:41.810Z,16.17
2023-05-20T06:28:33.984Z,16.46
2023-05-20T06:33:27.236Z,16.80
2023-05-20T06:38:20.177Z,17.04
2023-05-20T06:43:11.849Z,17.31
2023-05-20T06:48:03.618Z,17.58
2023-05-20T06:52:55.449Z,17.73
2023-05-20T06:57:47.097Z,18.07
2023-05-20T07:02:38.870Z,18.52
2023-05-20T07:07:30.606Z,18.88
2023-05-20T07:12:22.195Z,19.37
2023-05-20T07:17:13.805Z,19.56
2023-05-20T07:22:05.836Z,19.72
2023-05-20T07:26:57.599Z,19.89
2023-05-20T07:31:49.304Z,20.24
2023-05-20T07:36:40.962Z,20.45
2023-05-20T07:41:32.769Z,20.46
2023-05-20T07:46:24.529Z,20.50
2023-05-20T07:51:16.344Z,20.77
2023-05-20T07:56:08.353Z,21.00
2023-05-20T08:01:00.001Z,21.11
2023-05-20T08:05:51.890Z,21.34
2023-05-20T08:10:43.505Z,21.79
2023-05-20T08:15:36.648Z,22.11
2023-05-20T08:20:29.697Z,22.44
2023-05-20T08:25:21.432Z,22.73
2023-05-20T08:30:13.734Z,22.56
2023-05-20T08:35:07.650Z,22.62
2023-05-20T08:39:59.293Z,22.51
2023-05-20T08:44:53.942Z,22.61
2023-05-20T08:49:46.173Z,22.99
2023-05-20T08:54:46.229Z,22.86
2023-05-20T08:59:37.942Z,22.88
2023-05-20T09:04:29.697Z,23.28
2023-05-20T09:09:21.417Z,23.54
2023-05-20T09:14:13.051Z,23.65
2023-05-20T09:19:07.485Z,23.69
2023-05-20T09:24:02.413Z,23.73
2023-05-20T09:28:56.150Z,23.60
2023-05-20T09:33:49.575Z,23.28
2023-05-20T09:38:41.715Z,23.09
2023-05-20T09:43:33.653Z,23.44
2023-05-20T09:48:26.026Z,23.51
2023-05-20T09:53:18.576Z,23.59
2023-05-20T09:58:14.792Z,23.57
2023-05-20T10:03:08.327Z,24.00
2023-05-20T10:08:29.642Z,23.91
2023-05-20T10:13:27.075Z,23.68
2023-05-20T10:18:30.105Z,23.74
2023-05-20T10:23:29.009Z,23.82
2023-05-20T10:28:33.151Z,24.06
2023-05-20T10:33:27.904Z,24.08
2023-05-20T10:38:20.851Z,24.31
2023-05-20T10:43:18.817Z,24.40
2023-05-20T10:48:30.348Z,24.25
2023-05-20T10:58:17.768Z,24.41
2023-05-20T11:03:10.153Z,24.35
2023-05-20T11:08:16.981Z,24.30
2023-05-20T11:13:18.246Z,24.25
2023-05-20T11:18:11.640Z,24.24
2023-05-20T11:23:03.650Z,24.39
2023-05-20T11:27:55.295Z,24.10
2023-05-20T11:32:59.528Z,24.12
2023-05-20T11:38:00.928Z,24.41
2023-05-20T11:43:00.260Z,24.21
2023-05-20T11:48:05.458Z,24.00
2023-05-20T11:52:58.884Z,23.68
2023-05-20T11:57:52.085Z,23.44
2023-05-20T12:02:44.730Z,23.18
2023-05-20T12:07:36.843Z,23.30
2023-05-20T12:12:28.484Z,23.34
2023-05-20T12:17:20.137Z,22.97
2023-05-20T12:22:11.788Z,22.85
2023-05-20T12:27:06.525Z,22.99
2023-05-20T12:31:58.246Z,23.02
2023-05-20T12:36:50.037Z,23.03
2023-05-20T12:41:42.448Z,23.14
2023-05-20T12:46:34.142Z,22.80
2023-05-20T12:51:26.104Z,22.38
2023-05-20T12:56:18.808Z,22.10
2023-05-20T13:01:10.618Z,21.76
2023-05-20T13:06:02.918Z,21.56
2023-05-20T13:10:54.539Z,21.35
2023-05-20T13:15:46.974Z,21.13
2023-05-20T13:20:38.997Z,20.96
2023-05-20T13:25:31.929Z,20.85
2023-05-20T13:30:23.509Z,20.85
2023-05-20T13:35:16.984Z,20.88
2023-05-20T13:40:09.472Z,20.81
2023-05-20T13:45:01.218Z,20.53
2023-05-20T13:49:53.075Z,20.49
2023-05-20T13:54:47.398Z,20.47
2023-05-20T13:59:39.867Z,20.49
2023-05-20T14:04:31.574Z,20.46
2023-05-20T14:09:23.277Z,20.51
2023-05-20T14:14:14.879Z,20.64
2023-05-20T14:19:08.927Z,20.58
2023-05-20T14:24:01.432Z,20.54
2023-05-20T14:28:53.145Z,20.43
2023-05-20T14:33:44.806Z,20.42
2023-05-20T14:38:37.216Z,20.46
2023-05-20T14:43:28.888Z,20.45
2023-05-20T14:48:20.746Z,20.37
2023-05-20T14:53:12.353Z,20.44
2023-05-20T14:58:04.194Z,20.33
2023-05-20T15:02:56.062Z,20.29
2023-05-20T15:07:47.782Z,20.29
2023-05-20T15:12:39.684Z,20.23
2023-05-20T15:17:31.507Z,20.17
2023-05-20T15:22:23.193Z,20.04
2023-05-20T15:27:14.977Z,20.04
2023-05-20T15:32:06.823Z,20.11
2023-05-20T15:36:58.464Z,20.16
2023-05-20T15:41:52.164Z,19.99
2023-05-20T15:46:44.872Z,19.79
2023-05-20T15:51:36.538Z,19.88
2023-05-20T15:56:29.531Z,20.03
2023-05-20T16:01:22.850Z,20.04
2023-05-20T16:06:14.656Z,19.83
2023-05-20T16:11:07.586Z,19.87
2023-05-20T16:16:00.031Z,19.91
2023-05-20T16:20:51.916Z,19.80
2023-05-20T16:25:43.689Z,19.56
2023-05-20T16:30:35.771Z,19.42
2023-05-20T16:35:27.972Z,19.43
2023-05-20T16:40:19.674Z,19.47
2023-05-20T16:45:12.502Z,19.32
2023-05-20T16:50:04.711Z,19.21
2023-05-20T16:54:58.665Z,19.28
2023-05-20T16:59:50.543Z,19.28
2023-05-20T17:04:43.396Z,19.22
2023-05-20T17:09:35.392Z,19.25
2023-05-20T17:14:27.063Z,19.28
2023-05-20T17:19:18.818Z,19.22
2023-05-20T17:24:10.603Z,19.17
2023-05-20T17:29:02.358Z,19.11
2023-05-20T17:33:54.095Z,19.07
2023-05-20T17:38:46.011Z,19.00
2023-05-20T17:43:37.645Z,18.93
2023-05-20T17:48:31.318Z,18.82
2023-05-20T17:53:22.990Z,18.73
2023-05-20T17:58:14.669Z,18.70
2023-05-20T18:03:06.557Z,18.60
2023-05-20T18:07:58.316Z,18.54
2023-05-20T18:12:50.201Z,18.43
2023-05-20T18:17:41.950Z,18.37
2023-05-20T18:22:33.684Z,18.28
2023-05-20T18:27:25.633Z,18.20
2023-05-20T18:32:17.556Z,18.11
2023-05-20T18:37:09.176Z,17.99
2023-05-20T18:42:01.022Z,17.87
2023-05-20T18:46:52.719Z,17.75
2023-05-20T18:51:44.379Z,17.66
2023-05-20T18:56:36.361Z,17.57
2023-05-20T19:01:29.421Z,17.47
2023-05-20T19:06:21.948Z,17.37
2023-05-20T19:11:13.684Z,17.26
2023-05-20T19:16:05.612Z,17.15
2023-05-20T19:20:57.274Z,17.08
2023-05-20T19:25:48.954Z,17.01
2023-05-20T19:30:40.749Z,16.88
2023-05-20T19:35:33.519Z,16.80
2023-05-20T19:40:25.619Z,16.72
2023-05-20T19:45:17.456Z,16.61
2023-05-20T19:50:10.475Z,16.53
2023-05-20T19:55:02.752Z,16.43
2023-05-20T19:59:54.396Z,16.31
2023-05-20T20:04:47.205Z,16.16
2023-05-20T20:09:38.775Z,16.06
2023-05-20T20:14:30.916Z,15.94
2023-05-20T20:19:23.064Z,15.84
2023-05-20T20:24:16.019Z,15.72
2023-05-20T20:29:08.170Z,15.60
2023-05-20T20:33:59.919Z,15.44
2023-05-20T20:38:51.523Z,15.34
2023-05-20T20:43:47.458Z,15.21
2023-05-20T20:48:39.065Z,15.10
2023-05-20T20:53:30.712Z,14.99
2023-05-20T20:58:22.778Z,14.86
2023-05-20T21:03:14.439Z,14.80
2023-05-20T21:08:08.450Z,14.74
2023-05-20T21:13:00.458Z,14.64
2023-05-20T21:17:52.589Z,14.56
2023-05-20T21:22:44.331Z,14.50
2023-05-20T21:27:36.096Z,14.43
2023-05-20T21:32:27.851Z,14.35
2023-05-20T21:37:19.525Z,14.25
2023-05-20T21:42:11.263Z,14.18
2023-05-20T21:47:02.962Z,14.06
2023-05-20T21:51:54.669Z,13.93
2023-05-20T21:56:46.237Z,13.85
2023-05-20T22:01:37.891Z,13.77
2023-05-20T22:06:29.522Z,13.73
2023-05-20T22:11:21.669Z,13.67
2023-05-20T22:16:14.327Z,13.59
2023-05-20T22:21:06.930Z,13.52
2023-05-20T22:25:58.589Z,13.47
2023-05-20T22:30:50.259Z,13.37
2023-05-20T22:35:41.973Z,13.28
2023-05-20T22:40:33.781Z,13.19
2023-05-20T22:45:25.466Z,13.05
2023-05-20T22:50:18.221Z,12.96
2023-05-20T22:55:11.753Z,12.86
2023-05-20T23:00:04.997Z,12.79
2023-05-20T23:04:56.672Z,12.71
2023-05-20T23:09:48.715Z,12.63
2023-05-20T23:14:40.556Z,12.56
2023-05-20T23:19:32.232Z,12.50
2023-05-20T23:24:23.990Z,12.43
2023-05-20T23:29:15.670Z,12.35
2023-05-20T23:34:07.533Z,12.27
2023-05-20T23:38:59.268Z,12.25
2023-05-20T23:43:51.158Z,12.18
2023-05-20T23:48:45.005Z,12.09
2023-05-20T23:53:36.749Z,12.03
2023-05-20T23:58:28.363Z,11.93
